Time;durP1;ratioP1;P1;durP2;ratioP2;P2;SDS_P1;SDS_P2;PMS_P1;PMS_P2;Temp;Humidity;BMP_temperature;BMP_pressure;BME280_temperature;BME280_humidity;BME280_pressure;Samples;Min_cycle;Max_cycle;Signal;HPM_P1;HPM_P2
2022/08/03 00:00:08;;;;;;;0.40;0.30;;;19.80;99.90;;;;;;4988141;28;20430;-69
2022/08/03 00:02:33;;;;;;;0.50;0.50;;;19.80;99.90;;;;;;4987885;28;20431;-70
2022/08/03 00:05:00;;;;;;;0.40;0.30;;;19.70;99.90;;;;;;4971237;28;20445;-69
2022/08/03 00:07:25;;;;;;;0.40;0.30;;;19.70;99.90;;;;;;4971214;28;20418;-69
2022/08/03 00:09:51;;;;;;;0.40;0.30;;;19.80;99.90;;;;;;4987774;28;20763;-69
2022/08/03 00:12:17;;;;;;;0.90;0.90;;;19.80;99.90;;;;;;4971517;28;20875;-69
2022/08/03 00:14:43;;;;;;;0.40;0.20;;;19.70;99.90;;;;;;4973914;28;20481;-69
2022/08/03 00:17:09;;;;;;;0.40;0.20;;;19.80;99.90;;;;;;4987783;28;20418;-70
2022/08/03 00:19:34;;;;;;;0.40;0.20;;;19.80;99.90;;;;;;4971573;28;20398;-69
2022/08/03 00:22:00;;;;;;;0.40;0.30;;;19.90;99.90;;;;;;4987205;28;20399;-69
2022/08/03 00:24:26;;;;;;;0.40;0.20;;;19.80;99.90;;;;;;4971320;28;20407;-69
2022/08/03 00:26:52;;;;;;;0.40;0.20;;;19.80;99.90;;;;;;4987606;28;20390;-69
2022/08/03 00:29:18;;;;;;;0.40;0.30;;;19.70;99.90;;;;;;4987210;28;20422;-69
2022/08/03 00:31:43;;;;;;;0.50;0.50;;;19.70;99.90;;;;;;4987636;28;20399;-69
2022/08/03 00:34:09;;;;;;;0.40;0.30;;;19.70;99.90;;;;;;4971624;28;20391;-69
2022/08/03 00:36:35;;;;;;;0.40;0.30;;;19.60;99.90;;;;;;4987500;28;20874;-69
2022/08/03 00:39:00;;;;;;;0.40;0.30;;;19.70;99.90;;;;;;4971231;28;20414;-70
2022/08/03 00:41:26;;;;;;;0.40;0.30;;;19.60;99.90;;;;;;4971135;28;20406;-69
2022/08/03 00:43:52;;;;;;;0.60;0.60;;;19.60;99.90;;;;;;4971223;28;20393;-69
2022/08/03 00:46:19;;;;;;;0.40;0.30;;;19.60;99.90;;;;;;4970592;28;20555;-69
2022/08/03 00:48:44;;;;;;;0.40;0.20;;;19.50;99.90;;;;;;4987230;28;20902;-68
2022/08/03 00:51:10;;;;;;;0.40;0.20;;;19.50;99.90;;;;;;4971133;28;20403;-69
2022/08/03 00:53:37;;;;;;;0.40;0.30;;;19.40;99.90;;;;;;4971100;28;20398;-69
2022/08/03 00:56:04;;;;;;;0.40;0.30;;;19.50;99.90;;;;;;4956477;28;20881;-69
2022/08/03 00:58:30;;;;;;;0.40;0.30;;;19.40;99.90;;;;;;4951614;28;20449;-68
2022/08/03 01:00:56;;;;;;;0.40;0.30;;;19.40;99.90;;;;;;4936139;28;20769;-69
2022/08/03 01:03:22;;;;;;;0.40;0.30;;;19.30;99.90;;;;;;4951427;28;20407;-69
2022/08/03 01:05:50;;;;;;;0.40;0.30;;;19.30;99.90;;;;;;4951865;28;20401;-68
2022/08/03 01:08:16;;;;;;;1.20;0.60;;;19.30;99.90;;;;;;4967827;28;20424;-68
2022/08/03 01:11:08;;;;;;;0.40;0.30;;;19.30;99.90;;;;;;4974786;28;20421;-68
2022/08/03 01:13:49;;;;;;;0.70;0.70;;;19.20;99.90;;;;;;4990086;28;20428;-69
2022/08/03 01:16:25;;;;;;;0.40;0.30;;;19.10;99.90;;;;;;4990390;28;20819;-68
2022/08/03 01:19:26;;;;;;;0.55;0.43;;;19.10;99.90;;;;;;4991666;28;20466;-69
2022/08/03 01:22:04;;;;;;;0.40;0.30;;;19.20;99.90;;;;;;4990526;28;20399;-69
2022/08/03 01:25:07;;;;;;;0.40;0.30;;;19.20;99.90;;;;;;4990014;28;20395;-69
2022/08/03 01:27:47;;;;;;;0.40;0.30;;;19.10;99.90;;;;;;4989655;28;20448;-69
2022/08/03 01:30:14;;;;;;;0.40;0.20;;;19.00;99.90;;;;;;4990143;28;20464;-69
2022/08/03 01:32:54;;;;;;;0.40;0.28;;;19.00;99.90;;;;;;4974184;28;20399;-68
2022/08/03 01:35:41;;;;;;;0.40;0.30;;;19.00;99.90;;;;;;4989840;28;20407;-69
2022/08/03 01:38:30;;;;;;;0.80;0.80;;;19.00;99.90;;;;;;4990100;28;20484;-69
2022/08/03 01:41:00;;;;;;;0.40;0.30;;;18.90;99.90;;;;;;4991554;28;20391;-69
2022/08/03 01:43:29;;;;;;;0.40;0.30;;;18.90;99.90;;;;;;4974251;28;20452;-69
2022/08/03 01:45:56;;;;;;;0.40;0.30;;;18.90;99.90;;;;;;4973008;28;20431;-68
2022/08/03 01:48:23;;;;;;;0.40;0.30;;;18.80;99.90;;;;;;4973661;28;20418;-68
2022/08/03 01:50:51;;;;;;;0.40;0.30;;;18.80;99.90;;;;;;4973833;28;20415;-68
2022/08/03 01:53:18;;;;;;;0.40;0.20;;;18.80;99.90;;;;;;4973217;28;20885;-69
2022/08/03 01:55:48;;;;;;;0.40;0.30;;;18.80;99.90;;;;;;4961781;28;20428;-68
2022/08/03 01:58:16;;;;;;;0.40;0.20;;;18.80;99.90;;;;;;4970337;28;20408;-69
2022/08/03 02:00:43;;;;;;;0.40;0.30;;;18.70;99.90;;;;;;4957183;28;20410;-68
2022/08/03 02:03:12;;;;;;;0.40;0.20;;;18.70;99.90;;;;;;4973645;28;20875;-69
2022/08/03 02:05:39;;;;;;;0.40;0.20;;;18.70;99.90;;;;;;4973123;28;20395;-68
2022/08/03 02:08:07;;;;;;;0.40;0.20;;;18.70;99.90;;;;;;4989576;28;20774;-68
2022/08/03 02:10:35;;;;;;;0.40;0.30;;;18.70;99.90;;;;;;4973194;28;20391;-69
2022/08/03 02:13:02;;;;;;;0.40;0.20;;;18.70;99.90;;;;;;4989686;28;20401;-69
2022/08/03 02:15:30;;;;;;;0.40;0.30;;;18.80;99.90;;;;;;4972660;28;20544;-69
2022/08/03 02:17:57;;;;;;;0.40;0.20;;;18.60;99.90;;;;;;4973353;28;20438;-69
2022/08/03 02:20:24;;;;;;;0.40;0.20;;;18.70;99.90;;;;;;4971948;28;20407;-70
2022/08/03 02:22:49;;;;;;;0.40;0.30;;;18.70;99.90;;;;;;4973670;28;20716;-69
2022/08/03 02:25:16;;;;;;;0.40;0.30;;;18.70;99.90;;;;;;4973651;28;20409;-69
2022/08/03 02:27:55;;;;;;;0.40;0.30;;;18.70;99.90;;;;;;4972875;28;20414;-69
2022/08/03 02:30:27;;;;;;;0.40;0.20;;;18.60;99.90;;;;;;4989033;28;20411;-69
2022/08/03 02:32:55;;;;;;;0.40;0.30;;;18.60;99.90;;;;;;4973600;28;20434;-69
2022/08/03 02:35:25;;;;;;;0.40;0.20;;;18.70;99.90;;;;;;4988794;28;20409;-69
2022/08/03 02:37:55;;;;;;;0.40;0.30;;;18.70;99.90;;;;;;4989366;28;20409;-69
2022/08/03 02:40:23;;;;;;;0.40;0.30;;;18.70;99.90;;;;;;4988929;28;20426;-69
2022/08/03 02:42:52;;;;;;;0.40;0.20;;;18.60;99.90;;;;;;4973039;28;20399;-70
2022/08/03 02:45:19;;;;;;;0.40;0.28;;;18.60;99.90;;;;;;4988481;28;20419;-68
2022/08/03 02:47:47;;;;;;;0.40;0.20;;;18.50;99.90;;;;;;4972953;28;20937;-69
2022/08/03 02:50:16;;;;;;;0.80;0.60;;;18.60;99.90;;;;;;4988963;28;20424;-69
2022/08/03 02:52:44;;;;;;;0.40;0.20;;;18.70;99.90;;;;;;4972534;28;20399;-69
2022/08/03 02:55:11;;;;;;;0.40;0.20;;;18.70;99.90;;;;;;4965292;28;20972;-69
2022/08/03 02:57:38;;;;;;;0.40;0.40;;;18.70;99.90;;;;;;4953330;28;20495;-68
2022/08/03 03:00:06;;;;;;;0.40;0.30;;;18.70;99.90;;;;;;4958083;28;20401;-69
2022/08/03 03:02:33;;;;;;;0.40;0.20;;;18.60;99.90;;;;;;4972948;28;20491;-69
2022/08/03 03:05:01;;;;;;;0.40;0.30;;;18.60;99.90;;;;;;4972674;28;20398;-69
2022/08/03 03:07:28;;;;;;;0.40;0.30;;;18.60;99.90;;;;;;4972516;28;20406;-69
2022/08/03 03:09:55;;;;;;;0.60;0.60;;;18.50;99.90;;;;;;4972567;28;20406;-69
2022/08/03 03:12:22;;;;;;;0.40;0.30;;;18.50;99.90;;;;;;4972596;28;20407;-69
2022/08/03 03:14:49;;;;;;;0.40;0.30;;;18.40;99.90;;;;;;4972305;28;20448;-69
2022/08/03 03:17:16;;;;;;;0.40;0.20;;;18.40;99.90;;;;;;4971969;28;20421;-69
2022/08/03 03:19:44;;;;;;;0.40;0.30;;;18.30;99.90;;;;;;4988395;28;20402;-69
2022/08/03 03:22:11;;;;;;;0.40;0.30;;;18.30;99.90;;;;;;4988763;28;20391;-69
2022/08/03 03:24:40;;;;;;;0.40;0.20;;;18.20;99.90;;;;;;4972203;28;20900;-69
2022/08/03 03:27:06;;;;;;;0.40;0.20;;;18.20;99.90;;;;;;4988349;28;20459;-69
2022/08/03 03:29:33;;;;;;;0.52;0.52;;;18.20;99.90;;;;;;4988449;28;20489;-69
2022/08/03 03:32:00;;;;;;;0.40;0.30;;;18.20;99.90;;;;;;4972247;28;20398;-69
2022/08/03 03:34:28;;;;;;;0.40;0.20;;;18.10;99.90;;;;;;4988423;28;20402;-69
2022/08/03 03:36:54;;;;;;;0.40;0.30;;;18.20;99.90;;;;;;5005103;28;20490;-68
2022/08/03 03:39:20;;;;;;;0.40;0.30;;;18.10;99.90;;;;;;4972704;28;20533;-69
2022/08/03 03:41:45;;;;;;;0.40;0.30;;;18.20;99.90;;;;;;4972171;28;20402;-69
2022/08/03 03:44:11;;;;;;;0.40;0.20;;;18.20;99.90;;;;;;4972753;28;20395;-69
2022/08/03 03:46:38;;;;;;;0.40;0.30;;;18.40;99.90;;;;;;4972262;28;20922;-69
2022/08/03 03:49:07;;;;;;;0.40;0.30;;;18.30;99.90;;;;;;4988499;28;20782;-69
2022/08/03 03:51:33;;;;;;;0.50;0.50;;;18.20;99.90;;;;;;4972195;28;20398;-69
2022/08/03 03:54:01;;;;;;;0.40;0.30;;;18.10;99.90;;;;;;4972606;28;20391;-68
2022/08/03 03:56:28;;;;;;;0.40;0.30;;;18.20;99.90;;;;;;4970099;28;20393;-69
2022/08/03 03:58:55;;;;;;;0.40;0.30;;;18.30;99.90;;;;;;4953160;28;20404;-69
2022/08/03 04:01:21;;;;;;;0.40;0.20;;;18.10;99.90;;;;;;4953348;28;20485;-69
2022/08/03 04:03:47;;;;;;;0.40;0.30;;;18.10;99.90;;;;;;4952823;28;20744;-69
2022/08/03 04:11:51;;;;;;;0.40;0.30;;;18.30;99.90;;;;;;4988466;28;20744;-69
2022/08/03 04:14:17;;;;;;;0.40;0.30;;;18.30;99.90;;;;;;4972504;28;20394;-69
2022/08/03 04:16:47;;;;;;;0.40;0.30;;;18.30;99.90;;;;;;4987816;28;20813;-69
2022/08/03 04:19:36;;;;;;;0.40;0.20;;;18.40;99.90;;;;;;4988122;28;20478;-70
2022/08/03 04:22:05;;;;;;;0.40;0.20;;;18.40;99.90;;;;;;4988768;28;20421;-69
2022/08/03 04:24:34;;;;;;;0.40;0.30;;;18.30;99.90;;;;;;4988209;28;20473;-69
2022/08/03 04:27:03;;;;;;;0.40;0.20;;;18.40;99.90;;;;;;4988212;28;20866;-69
2022/08/03 04:29:32;;;;;;;0.40;0.20;;;18.40;99.90;;;;;;4987806;28;20463;-71
2022/08/03 04:31:59;;;;;;;0.80;0.50;;;18.50;99.90;;;;;;4972118;28;20457;-70
2022/08/03 04:34:24;;;;;;;0.40;0.20;;;18.50;99.90;;;;;;4972225;28;20407;-70
2022/08/03 04:36:54;;;;;;;0.60;0.60;;;18.50;99.90;;;;;;4971785;28;20399;-69
2022/08/03 04:39:25;;;;;;;0.40;0.20;;;18.40;99.90;;;;;;4988158;28;20497;-69
2022/08/03 04:41:55;;;;;;;0.40;0.20;;;18.40;99.90;;;;;;4987805;28;20415;-69
2022/08/03 04:44:23;;;;;;;0.40;0.20;;;18.50;99.90;;;;;;4973691;28;20410;-69
2022/08/03 04:46:49;;;;;;;0.40;0.20;;;18.50;99.90;;;;;;4974530;28;20515;-69
2022/08/03 04:49:15;;;;;;;0.40;0.30;;;18.50;99.90;;;;;;4991230;28;20415;-70
2022/08/03 04:51:41;;;;;;;0.90;0.60;;;18.40;99.90;;;;;;4990979;28;20387;-70
2022/08/03 04:54:12;;;;;;;0.40;0.30;;;18.40;99.90;;;;;;4974991;28;20390;-69
2022/08/03 04:56:42;;;;;;;0.70;0.70;;;18.40;99.90;;;;;;4985862;28;20417;-69
2022/08/03 04:59:09;;;;;;;0.40;0.30;;;18.40;99.90;;;;;;4991435;28;20402;-70
2022/08/03 05:01:35;;;;;;;0.77;0.77;;;18.40;99.90;;;;;;4974861;28;20556;-69
2022/08/03 05:04:01;;;;;;;0.57;0.57;;;18.40;99.90;;;;;;4975385;28;20438;-69
2022/08/03 05:06:28;;;;;;;0.40;0.30;;;18.50;99.90;;;;;;4974975;28;20405;-69
2022/08/03 05:08:54;;;;;;;0.40;0.20;;;18.40;99.90;;;;;;4974820;28;20921;-69
2022/08/03 05:11:20;;;;;;;0.40;0.30;;;18.40;99.90;;;;;;4974753;28;20436;-69
2022/08/03 05:13:46;;;;;;;0.40;0.30;;;18.40;99.90;;;;;;4974496;28;20414;-69
2022/08/03 05:16:12;;;;;;;0.40;0.30;;;18.40;99.90;;;;;;4974723;28;20891;-69
2022/08/03 05:18:39;;;;;;;0.47;0.40;;;18.40;99.90;;;;;;4974551;28;20894;-69
2022/08/03 05:21:05;;;;;;;0.50;0.50;;;18.40;99.90;;;;;;4991231;28;20905;-69
2022/08/03 05:23:31;;;;;;;0.40;0.30;;;18.50;99.90;;;;;;5007017;28;20425;-69
2022/08/03 05:25:57;;;;;;;0.40;0.30;;;18.60;99.90;;;;;;4974491;28;20443;-69
2022/08/03 05:28:23;;;;;;;0.40;0.20;;;18.60;99.90;;;;;;4974301;28;20441;-69
2022/08/03 05:30:49;;;;;;;0.40;0.30;;;18.70;99.90;;;;;;4974322;28;21242;-69
2022/08/03 05:33:15;;;;;;;0.40;0.30;;;18.80;99.90;;;;;;4974615;28;20398;-70
2022/08/03 05:35:40;;;;;;;0.40;0.20;;;18.90;99.90;;;;;;4974184;28;20502;-69
2022/08/03 05:38:06;;;;;;;0.40;0.20;;;18.90;99.90;;;;;;4990520;28;20391;-69
2022/08/03 05:40:32;;;;;;;0.40;0.30;;;19.10;99.90;;;;;;4974067;28;20793;-69
2022/08/03 05:42:59;;;;;;;0.40;0.40;;;19.20;99.90;;;;;;4974424;28;20431;-69
2022/08/03 05:45:25;;;;;;;0.40;0.30;;;19.30;99.90;;;;;;4973774;28;20423;-69
2022/08/03 05:47:51;;;;;;;0.60;0.60;;;19.40;99.90;;;;;;4973817;28;20476;-70
2022/08/03 05:50:18;;;;;;;0.40;0.30;;;19.50;99.90;;;;;;4974386;28;20413;-69
2022/08/03 05:52:44;;;;;;;0.40;0.20;;;19.60;99.90;;;;;;4973978;28;20771;-70
2022/08/03 05:55:10;;;;;;;0.40;0.20;;;19.60;99.90;;;;;;4966662;28;20396;-69
2022/08/03 05:57:37;;;;;;;0.40;0.20;;;19.70;99.90;;;;;;4954682;28;20405;-70
2022/08/03 06:00:08;;;;;;;0.40;0.22;;;19.70;99.90;;;;;;4971045;28;20446;-70
2022/08/03 06:02:34;;;;;;;0.40;0.30;;;19.70;99.90;;;;;;4963566;28;20505;-70
2022/08/03 06:05:00;;;;;;;0.40;0.40;;;19.80;99.90;;;;;;4974201;28;20468;-69
2022/08/03 06:07:26;;;;;;;0.40;0.20;;;19.80;99.90;;;;;;4973848;28;20406;-69
2022/08/03 06:09:52;;;;;;;0.43;0.28;;;19.80;99.90;;;;;;4989860;28;20406;-70
2022/08/03 06:12:18;;;;;;;0.40;0.20;;;19.90;99.90;;;;;;4974190;28;20902;-69
2022/08/03 06:14:44;;;;;;;1.40;1.10;;;20.00;99.90;;;;;;4973872;28;20391;-70
2022/08/03 06:17:10;;;;;;;0.40;0.20;;;20.10;99.90;;;;;;4989697;28;20399;-71
2022/08/03 06:19:35;;;;;;;0.40;0.30;;;20.10;99.90;;;;;;4989534;28;20402;-70
2022/08/03 06:22:01;;;;;;;0.40;0.30;;;20.10;99.90;;;;;;4991262;28;20793;-70
2022/08/03 06:24:27;;;;;;;0.40;0.30;;;20.20;99.90;;;;;;4973879;28;20434;-70
2022/08/03 06:26:53;;;;;;;0.40;0.20;;;20.30;99.90;;;;;;4973516;28;20403;-71
2022/08/03 06:29:19;;;;;;;0.40;0.30;;;20.30;99.90;;;;;;4974013;28;20426;-70
2022/08/03 06:31:45;;;;;;;0.40;0.30;;;20.50;99.90;;;;;;4973186;28;20532;-71
2022/08/03 06:34:11;;;;;;;0.40;0.30;;;20.70;99.90;;;;;;4973800;28;20434;-70
2022/08/03 06:36:37;;;;;;;0.40;0.30;;;20.70;99.90;;;;;;4972280;28;20403;-69
2022/08/03 06:39:03;;;;;;;0.40;0.20;;;20.80;99.90;;;;;;4973263;28;20401;-68
2022/08/03 06:41:29;;;;;;;0.40;0.30;;;20.90;99.90;;;;;;4989689;28;20387;-68
2022/08/03 06:43:55;;;;;;;0.40;0.30;;;21.00;99.90;;;;;;4973179;28;20485;-69
2022/08/03 06:46:21;;;;;;;0.47;0.30;;;21.20;99.90;;;;;;4973079;28;20779;-68
2022/08/03 06:48:47;;;;;;;0.50;0.40;;;21.40;99.90;;;;;;4972797;28;20423;-69
2022/08/03 06:51:13;;;;;;;0.40;0.30;;;21.40;99.90;;;;;;4972911;28;20767;-68
2022/08/03 06:53:39;;;;;;;0.40;0.20;;;21.50;99.90;;;;;;4972733;28;20422;-69
2022/08/03 06:56:06;;;;;;;0.50;0.40;;;21.60;99.90;;;;;;4974915;28;20400;-69
2022/08/03 06:58:32;;;;;;;0.43;0.30;;;22.10;99.90;;;;;;4954088;28;20807;-69
2022/08/03 07:00:57;;;;;;;0.50;0.40;;;22.20;99.90;;;;;;4953696;28;20408;-69
2022/08/03 07:03:23;;;;;;;0.40;0.30;;;22.20;99.90;;;;;;4954228;28;20585;-69
2022/08/03 07:05:50;;;;;;;0.40;0.30;;;22.30;99.90;;;;;;4953462;28;20453;-69
2022/08/03 07:08:16;;;;;;;0.40;0.20;;;22.50;99.90;;;;;;4960279;28;20599;-69
2022/08/03 07:10:43;;;;;;;0.40;0.30;;;22.60;99.90;;;;;;4972366;28;20472;-68
2022/08/03 07:13:09;;;;;;;0.40;0.20;;;22.80;99.90;;;;;;4973374;28;20425;-69
2022/08/03 07:15:34;;;;;;;0.40;0.30;;;22.90;99.90;;;;;;4973022;28;20488;-68
2022/08/03 07:18:00;;;;;;;0.40;0.30;;;23.10;99.90;;;;;;4973219;28;20494;-69
2022/08/03 07:20:27;;;;;;;0.40;0.30;;;23.10;99.90;;;;;;4972947;28;20394;-69
2022/08/03 07:22:53;;;;;;;0.40;0.30;;;23.10;99.90;;;;;;4972453;28;20410;-69
2022/08/03 07:25:19;;;;;;;0.40;0.30;;;23.10;99.90;;;;;;4972666;28;20403;-70
2022/08/03 07:27:46;;;;;;;0.40;0.30;;;23.10;99.90;;;;;;4972530;28;20927;-69
2022/08/03 07:30:13;;;;;;;0.40;0.28;;;23.10;99.90;;;;;;4988593;28;20883;-69
2022/08/03 07:32:39;;;;;;;0.40;0.20;;;23.10;99.90;;;;;;4988370;28;20399;-69
2022/08/03 07:35:06;;;;;;;0.40;0.30;;;23.30;99.90;;;;;;4972929;28;20405;-69
2022/08/03 07:37:32;;;;;;;0.40;0.20;;;23.50;99.90;;;;;;4988929;28;20747;-69
2022/08/03 07:40:03;;;;;;;0.40;0.20;;;23.50;99.90;;;;;;4972586;28;20490;-68
2022/08/03 07:42:29;;;;;;;0.40;0.30;;;23.60;99.90;;;;;;4972833;28;20414;-69
2022/08/03 07:44:56;;;;;;;0.40;0.20;;;23.60;99.90;;;;;;4988039;28;20857;-69
2022/08/03 07:47:27;;;;;;;0.40;0.30;;;23.70;99.90;;;;;;4972465;28;20890;-69
2022/08/03 07:49:53;;;;;;;0.40;0.30;;;23.80;99.90;;;;;;4988187;28;20735;-69
2022/08/03 07:55:05;;;;;;;0.40;0.30;;;24.00;99.90;;;;;;4982269;28;20473;-69
2022/08/03 07:57:31;;;;;;;0.40;0.20;;;24.00;99.90;;;;;;4953270;28;20546;-68
2022/08/03 07:59:57;;;;;;;0.80;0.80;;;24.10;99.70;;;;;;4972062;28;20525;-68
2022/08/03 08:02:24;;;;;;;0.90;0.60;;;24.10;99.90;;;;;;4972131;28;20415;-69
2022/08/03 08:04:49;;;;;;;0.40;0.40;;;24.10;99.90;;;;;;4972273;28;20498;-68
2022/08/03 08:07:15;;;;;;;0.40;0.20;;;24.30;97.70;;;;;;4972176;28;20540;-69
2022/08/03 08:09:41;;;;;;;0.40;0.30;;;24.40;97.70;;;;;;4988133;28;20485;-69
2022/08/03 08:12:08;;;;;;;0.40;0.25;;;24.50;95.90;;;;;;4972852;28;20398;-68
2022/08/03 08:14:34;;;;;;;0.40;0.25;;;24.60;96.20;;;;;;4971950;28;20426;-69
2022/08/03 08:17:00;;;;;;;0.40;0.20;;;24.60;96.10;;;;;;4971709;28;20565;-69
2022/08/03 08:19:26;;;;;;;0.40;0.20;;;24.70;95.70;;;;;;4970903;28;20952;-68
2022/08/03 08:21:52;;;;;;;0.40;0.30;;;24.70;95.20;;;;;;4988359;28;20398;-69
2022/08/03 08:24:18;;;;;;;0.40;0.30;;;24.70;94.70;;;;;;4972010;28;21000;-69
2022/08/03 08:26:44;;;;;;;0.50;0.40;;;24.90;95.20;;;;;;4971662;28;20494;-68
2022/08/03 08:29:10;;;;;;;0.40;0.20;;;25.00;94.90;;;;;;4971900;28;20450;-69
2022/08/03 08:31:35;;;;;;;0.40;0.30;;;25.00;94.70;;;;;;4971853;28;20767;-69
2022/08/03 08:34:04;;;;;;;0.40;0.20;;;25.00;95.20;;;;;;4971767;28;20391;-68
2022/08/03 08:36:34;;;;;;;0.40;0.35;;;25.10;94.70;;;;;;4972472;28;20395;-70
2022/08/03 08:39:00;;;;;;;0.40;0.20;;;25.20;95.20;;;;;;4987718;28;21224;-67
2022/08/03 08:41:26;;;;;;;0.40;0.40;;;25.20;95.10;;;;;;4987645;28;20434;-67
2022/08/03 08:43:53;;;;;;;0.40;0.20;;;25.20;94.70;;;;;;4971426;28;20398;-68
2022/08/03 08:46:19;;;;;;;0.40;0.30;;;25.20;94.80;;;;;;4971260;28;20422;-68
2022/08/03 08:48:47;;;;;;;0.75;0.75;;;25.20;94.80;;;;;;4971516;28;20414;-68
2022/08/03 08:51:15;;;;;;;0.40;0.30;;;25.30;94.80;;;;;;4988222;28;20399;-68
2022/08/03 08:53:44;;;;;;;0.40;0.20;;;25.50;94.10;;;;;;4971965;28;20398;-68
2022/08/03 08:56:15;;;;;;;0.40;0.30;;;25.80;93.80;;;;;;4981958;28;20432;-68
2022/08/03 08:58:46;;;;;;;0.40;0.30;;;25.90;93.40;;;;;;4979529;28;20411;-70
2022/08/03 09:01:12;;;;;;;0.40;0.30;;;26.00;92.80;;;;;;4968489;28;20745;-68
2022/08/03 09:03:40;;;;;;;0.40;0.30;;;26.00;92.40;;;;;;4968035;28;20495;-69
2022/08/03 09:06:07;;;;;;;0.40;0.20;;;26.00;92.40;;;;;;4952377;28;20498;-68
2022/08/03 09:08:35;;;;;;;0.40;0.30;;;26.10;91.60;;;;;;4952512;28;20412;-68
2022/08/03 09:11:01;;;;;;;0.40;0.30;;;26.20;91.90;;;;;;4967662;28;20393;-68
2022/08/03 09:13:27;;;;;;;0.40;0.40;;;26.10;92.60;;;;;;4961613;28;20882;-68
2022/08/03 09:16:26;;;;;;;0.40;0.30;;;26.20;91.90;;;;;;4987225;28;20890;-68
2022/08/03 09:18:53;;;;;;;0.40;0.20;;;26.40;92.10;;;;;;4982368;28;20414;-69
2022/08/03 09:21:18;;;;;;;0.40;0.20;;;26.60;91.70;;;;;;4987424;28;20452;-68
2022/08/03 09:23:53;;;;;;;0.40;0.30;;;26.60;91.00;;;;;;4987243;28;20837;-69
2022/08/03 09:26:24;;;;;;;0.40;0.30;;;26.60;91.00;;;;;;4987833;28;20437;-71
2022/08/03 09:29:19;;;;;;;0.70;0.50;;;26.70;91.20;;;;;;4971310;28;20415;-70
2022/08/03 09:31:45;;;;;;;0.40;0.20;;;26.70;91.20;;;;;;5020876;28;20403;-70
2022/08/03 09:34:16;;;;;;;0.40;0.20;;;26.70;90.70;;;;;;4990746;28;20395;-70
2022/08/03 09:36:49;;;;;;;0.40;0.20;;;26.80;90.10;;;;;;4974814;28;20432;-70
2022/08/03 09:39:20;;;;;;;0.40;0.20;;;26.70;89.50;;;;;;4990423;28;20410;-69
2022/08/03 09:42:05;;;;;;;0.60;0.60;;;26.70;90.20;;;;;;4974918;28;20902;-70
2022/08/03 09:44:42;;;;;;;0.40;0.20;;;27.00;88.20;;;;;;4990535;28;20399;-69
2022/08/03 09:47:10;;;;;;;0.40;0.30;;;26.90;86.60;;;;;;4974358;28;20890;-70
2022/08/03 09:49:37;;;;;;;0.40;0.30;;;27.10;85.80;;;;;;4990464;28;20418;-70
2022/08/03 09:52:33;;;;;;;0.40;0.30;;;27.20;85.00;;;;;;4974002;28;21300;-69
2022/08/03 09:55:01;;;;;;;0.40;0.20;;;27.20;84.50;;;;;;4983418;28;20440;-70
2022/08/03 09:57:29;;;;;;;0.40;0.20;;;27.40;81.70;;;;;;4955202;28;20400;-69
2022/08/03 10:00:10;;;;;;;0.40;0.20;;;27.40;81.40;;;;;;4954817;28;20404;-68
2022/08/03 10:02:37;;;;;;;0.40;0.30;;;27.60;81.60;;;;;;4970985;28;20427;-68
2022/08/03 10:05:04;;;;;;;0.50;0.50;;;27.50;78.10;;;;;;4954543;28;20404;-68
2022/08/03 10:07:44;;;;;;;0.40;0.20;;;27.60;78.40;;;;;;4958658;28;20406;-69
2022/08/03 10:10:11;;;;;;;0.40;0.30;;;27.60;78.80;;;;;;4989897;28;20407;-69
2022/08/03 10:12:39;;;;;;;0.40;0.20;;;27.70;78.90;;;;;;4967885;28;20398;-69
2022/08/03 10:15:05;;;;;;;0.40;0.20;;;27.80;79.40;;;;;;4966586;28;20874;-69
2022/08/03 10:17:31;;;;;;;0.40;0.20;;;27.90;79.10;;;;;;4983671;28;20724;-68
2022/08/03 10:19:58;;;;;;;0.40;0.20;;;28.00;79.50;;;;;;4951038;28;20484;-69
2022/08/03 10:22:32;;;;;;;0.40;0.30;;;28.20;79.50;;;;;;4967114;28;20446;-68
2022/08/03 10:25:11;;;;;;;0.40;0.20;;;28.40;78.20;;;;;;4995353;28;20797;-69
2022/08/03 10:27:41;;;;;;;0.40;0.30;;;28.30;78.90;;;;;;4990425;28;20743;-68
2022/08/03 10:30:09;;;;;;;0.40;0.30;;;28.40;77.80;;;;;;4989616;28;20488;-68
2022/08/03 10:32:47;;;;;;;0.40;0.20;;;28.40;79.20;;;;;;4989814;28;20394;-70
2022/08/03 10:35:14;;;;;;;0.40;0.30;;;28.80;77.00;;;;;;4990326;28;20402;-68
2022/08/03 10:37:43;;;;;;;0.40;0.30;;;28.80;77.70;;;;;;4989265;28;20442;-69
2022/08/03 10:40:13;;;;;;;0.40;0.20;;;29.00;77.50;;;;;;4989617;28;20406;-69
2022/08/03 10:42:42;;;;;;;0.50;0.40;;;29.00;78.10;;;;;;4988847;28;20517;-69
2022/08/03 10:45:16;;;;;;;0.40;0.20;;;29.10;75.10;;;;;;4973065;28;21033;-69
2022/08/03 10:47:43;;;;;;;0.40;0.20;;;29.20;75.10;;;;;;4989217;28;20433;-69
2022/08/03 10:50:10;;;;;;;0.40;0.30;;;29.20;75.30;;;;;;4972751;28;20413;-70
2022/08/03 10:52:52;;;;;;;0.40;0.20;;;29.20;75.10;;;;;;4973511;28;20390;-69
2022/08/03 10:58:48;;;;;;;0.40;0.20;;;29.30;75.60;;;;;;4971592;28;20395;-69
2022/08/03 11:01:15;;;;;;;0.40;0.20;;;29.40;74.10;;;;;;4942687;28;20605;-72
2022/08/03 11:03:56;;;;;;;0.40;0.30;;;29.40;71.90;;;;;;4968794;28;20421;-70
2022/08/03 11:06:24;;;;;;;0.40;0.20;;;29.30;71.00;;;;;;4989487;28;20456;-69
2022/08/03 11:09:08;;;;;;;0.40;0.30;;;29.50;71.70;;;;;;5005252;28;20974;-70
2022/08/03 11:11:35;;;;;;;0.40;0.30;;;29.60;70.30;;;;;;4989271;28;20405;-69
2022/08/03 11:14:11;;;;;;;0.40;0.20;;;29.70;68.90;;;;;;4972717;28;20758;-70
2022/08/03 11:16:41;;;;;;;0.40;0.30;;;29.70;69.80;;;;;;4989114;28;20403;-69
2022/08/03 11:19:13;;;;;;;0.40;0.20;;;29.90;69.40;;;;;;4988714;28;20415;-69
2022/08/03 11:21:50;;;;;;;0.40;0.20;;;30.00;67.60;;;;;;4988917;28;20486;-69
2022/08/03 11:24:35;;;;;;;0.40;0.30;;;30.20;66.70;;;;;;4989399;28;20403;-69
2022/08/03 11:27:21;;;;;;;0.43;0.30;;;30.40;65.30;;;;;;4988617;28;20391;-69
2022/08/03 11:29:53;;;;;;;0.40;0.20;;;30.50;65.90;;;;;;4973061;28;20558;-69
2022/08/03 11:32:43;;;;;;;0.40;0.30;;;30.60;66.40;;;;;;4988676;28;20428;-69
2022/08/03 11:35:10;;;;;;;0.40;0.40;;;30.80;65.00;;;;;;4989751;28;20963;-69
2022/08/03 11:37:56;;;;;;;0.40;0.20;;;31.00;62.80;;;;;;4988958;28;20390;-69
2022/08/03 11:40:34;;;;;;;0.40;0.20;;;31.00;63.10;;;;;;4988564;28;20440;-69
2022/08/03 11:43:00;;;;;;;0.40;0.20;;;31.30;62.40;;;;;;4988537;28;20399;-70
2022/08/03 11:45:27;;;;;;;0.40;0.20;;;31.60;60.70;;;;;;4972422;28;20812;-70
2022/08/03 11:47:54;;;;;;;0.40;0.20;;;32.60;59.90;;;;;;4972374;28;20501;-71
2022/08/03 11:50:21;;;;;;;0.40;0.20;;;33.20;56.30;;;;;;4972835;28;20470;-70
2022/08/03 11:52:48;;;;;;;0.40;0.20;;;33.20;55.20;;;;;;4972418;28;20411;-70
2022/08/03 11:55:17;;;;;;;0.40;0.20;;;33.90;54.20;;;;;;4980525;28;20404;-70
2022/08/03 11:57:45;;;;;;;0.40;0.20;;;34.00;52.80;;;;;;4969118;28;20405;-70
2022/08/03 12:00:23;;;;;;;0.40;0.20;;;33.50;52.70;;;;;;4970581;28;20407;-70
2022/08/03 12:03:02;;;;;;;0.40;0.20;;;33.80;52.90;;;;;;4988944;28;20444;-69
2022/08/03 12:05:38;;;;;;;0.40;0.20;;;34.30;52.40;;;;;;4988621;28;20413;-70
2022/08/03 12:08:05;;;;;;;0.40;0.20;;;34.20;52.00;;;;;;4972217;28;20922;-70
2022/08/03 12:10:31;;;;;;;0.40;0.20;;;34.20;50.80;;;;;;4988900;28;20387;-70
2022/08/03 12:12:59;;;;;;;0.40;0.20;;;34.90;48.60;;;;;;4971771;28;20757;-70
2022/08/03 12:15:31;;;;;;;0.40;0.20;;;33.60;49.80;;;;;;4988379;28;20407;-69
2022/08/03 12:17:57;;;;;;;0.40;0.20;;;34.80;50.00;;;;;;4971987;28;20402;-70
2022/08/03 12:20:25;;;;;;;0.40;0.20;;;34.50;48.00;;;;;;4971737;28;20426;-70
2022/08/03 12:22:51;;;;;;;0.40;0.20;;;34.90;51.20;;;;;;4989516;28;20724;-70
2022/08/03 12:25:26;;;;;;;0.40;0.20;;;35.70;48.30;;;;;;4987982;28;20390;-70
2022/08/03 12:27:53;;;;;;;0.40;0.20;;;35.20;46.40;;;;;;4988433;28;20425;-71
2022/08/03 12:30:19;;;;;;;0.40;0.20;;;34.60;46.10;;;;;;4987868;28;20404;-69
2022/08/03 12:32:46;;;;;;;0.40;0.20;;;35.00;46.50;;;;;;4972137;28;20433;-70
2022/08/03 12:35:23;;;;;;;0.40;0.20;;;35.30;46.60;;;;;;4971427;28;20401;-70
2022/08/03 12:37:50;;;;;;;0.40;0.25;;;35.00;47.70;;;;;;4972195;28;20395;-70
2022/08/03 12:40:26;;;;;;;0.40;0.30;;;35.00;47.70;;;;;;4971490;28;20411;-70
2022/08/03 12:42:52;;;;;;;0.40;0.20;;;35.50;47.10;;;;;;4988189;28;20422;-70
2022/08/03 12:45:23;;;;;;;0.40;0.20;;;35.40;48.00;;;;;;4987399;28;20503;-70
2022/08/03 12:47:59;;;;;;;0.40;0.20;;;35.50;47.30;;;;;;4987859;28;20447;-70
2022/08/03 12:50:33;;;;;;;0.40;0.20;;;35.20;49.10;;;;;;4972211;28;20398;-70
2022/08/03 12:53:01;;;;;;;0.50;0.40;;;35.70;47.50;;;;;;4987466;28;20411;-70
2022/08/03 12:55:32;;;;;;;0.40;0.20;;;35.90;46.10;;;;;;4962271;28;20404;-69
2022/08/03 12:58:06;;;;;;;0.40;0.20;;;35.70;45.80;;;;;;4961717;28;20422;-71
2022/08/03 13:00:33;;;;;;;0.40;0.20;;;35.70;44.30;;;;;;4988260;28;20751;-69
2022/08/03 13:03:04;;;;;;;0.40;0.20;;;35.40;45.50;;;;;;4971745;28;20399;-71
2022/08/03 13:05:31;;;;;;;0.40;0.20;;;35.40;44.40;;;;;;4990478;28;20417;-70
2022/08/03 13:07:57;;;;;;;0.40;0.20;;;36.10;46.00;;;;;;4974666;28;20409;-69